Time;durP1;ratioP1;P1;durP2;ratioP2;P2;SDS_P1;SDS_P2;PMS_P1;PMS_P2;Temp;Humidity;BMP_temperature;BMP_pressure;BME280_temperature;BME280_humidity;BME280_pressure;Samples;Min_cycle;Max_cycle;Signal;HPM_P1;HPM_P2
2021/11/16 00:00:34;;;;;;;15.75;11.55;;;10.60;94.40;;;;;;5051931;28;20057;-67
2021/11/16 00:03:02;;;;;;;16.20;10.13;;;10.60;95.80;;;;;;5052851;28;20052;-67
2021/11/16 00:05:29;;;;;;;17.30;11.80;;;10.60;95.80;;;;;;5049706;28;20412;-68
2021/11/16 00:07:57;;;;;;;19.83;11.35;;;10.60;95.00;;;;;;5047637;28;20049;-67
2021/11/16 00:10:24;;;;;;;16.73;11.95;;;10.60;92.90;;;;;;5047600;28;20081;-68
2021/11/16 00:12:51;;;;;;;16.80;11.13;;;10.60;94.90;;;;;;5034240;28;20056;-68
2021/11/16 00:15:18;;;;;;;17.65;11.70;;;10.60;94.30;;;;;;5012417;28;20045;-67
2021/11/16 00:17:45;;;;;;;14.30;10.98;;;10.60;95.70;;;;;;5037509;28;20049;-67
2021/11/16 00:20:14;;;;;;;14.50;10.85;;;10.60;93.60;;;;;;5016184;28;20490;-68
2021/11/16 00:22:41;;;;;;;15.85;11.48;;;10.60;94.20;;;;;;5047180;28;20063;-67
2021/11/16 00:27:43;;;;;;;16.02;10.70;;;10.60;93.70;;;;;;5045115;28;20064;-67
2021/11/16 00:30:10;;;;;;;17.45;11.32;;;10.60;95.50;;;;;;5045878;28;20041;-67
2021/11/16 00:32:37;;;;;;;14.35;11.00;;;10.60;96.40;;;;;;5052112;28;20049;-67
2021/11/16 00:35:05;;;;;;;16.25;12.05;;;10.60;96.40;;;;;;5031498;28;20053;-67
2021/11/16 00:37:32;;;;;;;15.35;11.25;;;10.60;97.20;;;;;;5035177;28;20369;-67
2021/11/16 00:40:01;;;;;;;16.35;11.75;;;10.60;97.50;;;;;;5051347;28;20060;-68
2021/11/16 00:42:28;;;;;;;17.75;11.88;;;10.50;95.80;;;;;;5074402;28;20202;-67
2021/11/16 00:44:55;;;;;;;15.35;11.45;;;10.60;97.00;;;;;;5049740;28;20097;-68
2021/11/16 00:47:22;;;;;;;15.48;11.18;;;10.50;96.50;;;;;;5052841;28;20049;-68
2021/11/16 00:49:50;;;;;;;17.98;11.50;;;10.60;97.90;;;;;;5034619;28;20176;-68
2021/11/16 00:52:18;;;;;;;14.68;11.45;;;10.50;97.70;;;;;;5052278;28;20049;-67
2021/11/16 00:54:45;;;;;;;17.90;13.43;;;10.50;97.60;;;;;;5051649;28;20132;-67
2021/11/16 00:57:12;;;;;;;16.73;11.73;;;10.50;97.70;;;;;;5075910;28;20048;-68
2021/11/16 00:59:39;;;;;;;15.55;12.30;;;10.50;98.20;;;;;;5063861;28;20072;-68
2021/11/16 01:02:06;;;;;;;18.35;12.00;;;10.50;97.70;;;;;;5052882;28;20051;-69
2021/11/16 01:04:34;;;;;;;15.13;11.13;;;10.50;98.00;;;;;;5049663;28;20046;-66
2021/11/16 01:07:02;;;;;;;13.77;10.68;;;10.50;97.70;;;;;;5053687;28;20408;-66
2021/11/16 01:09:29;;;;;;;20.20;12.33;;;10.50;98.20;;;;;;5049077;28;20041;-67
2021/11/16 01:11:56;;;;;;;18.20;13.10;;;10.50;98.30;;;;;;5053276;28;20365;-67
2021/11/16 01:14:26;;;;;;;18.85;11.90;;;10.50;98.60;;;;;;5053592;28;20074;-67
2021/11/16 01:16:53;;;;;;;16.95;11.60;;;10.50;98.90;;;;;;5043405;28;20132;-67
2021/11/16 01:19:20;;;;;;;17.67;12.13;;;10.40;99.00;;;;;;5052197;28;20041;-67
2021/11/16 01:21:49;;;;;;;13.35;11.00;;;10.50;99.60;;;;;;5035301;28;20412;-67
2021/11/16 01:24:17;;;;;;;15.60;11.80;;;10.40;99.20;;;;;;5050221;28;20044;-66
2021/11/16 01:26:46;;;;;;;14.95;11.20;;;10.40;98.30;;;;;;5050809;28;20049;-67
2021/11/16 01:29:14;;;;;;;17.30;12.15;;;10.40;99.20;;;;;;5034821;28;20112;-67
2021/11/16 01:31:41;;;;;;;16.77;12.75;;;10.40;99.00;;;;;;5052961;28;20412;-67
2021/11/16 01:34:10;;;;;;;21.70;13.70;;;10.40;99.20;;;;;;5053704;28;20164;-68
2021/11/16 01:36:37;;;;;;;16.60;12.93;;;10.40;99.90;;;;;;5052440;28;20063;-67
2021/11/16 01:39:04;;;;;;;15.88;12.02;;;10.40;99.10;;;;;;5061552;28;20472;-67
2021/11/16 01:41:32;;;;;;;17.25;12.45;;;10.40;99.30;;;;;;5034676;28;20083;-67
2021/11/16 01:44:00;;;;;;;19.48;12.50;;;10.40;99.50;;;;;;5051767;28;20083;-67
2021/11/16 01:46:27;;;;;;;17.27;11.98;;;10.40;99.10;;;;;;5049740;28;20045;-67
2021/11/16 01:48:57;;;;;;;15.32;12.07;;;10.40;99.80;;;;;;5042128;28;20067;-67
2021/11/16 01:51:27;;;;;;;14.95;11.05;;;10.40;99.30;;;;;;5010712;28;20493;-67
2021/11/16 01:54:01;;;;;;;18.77;13.02;;;10.40;99.30;;;;;;5040957;28;20048;-71
2021/11/16 01:56:32;;;;;;;15.07;11.23;;;10.40;98.30;;;;;;5030921;28;20461;-66
2021/11/16 01:59:00;;;;;;;16.55;12.00;;;10.40;96.20;;;;;;5049809;28;20047;-66
2021/11/16 02:01:28;;;;;;;13.07;10.00;;;10.40;95.70;;;;;;5029345;28;20053;-67
2021/11/16 02:03:56;;;;;;;12.95;9.90;;;10.30;92.50;;;;;;5038437;28;20154;-69
2021/11/16 02:06:27;;;;;;;14.48;10.90;;;10.40;92.40;;;;;;5035034;28;20049;-67
2021/11/16 02:08:55;;;;;;;14.88;11.50;;;10.40;91.40;;;;;;5047931;28;20398;-69
2021/11/16 02:11:23;;;;;;;13.63;11.77;;;10.40;93.70;;;;;;5050763;28;20045;-67
2021/11/16 02:13:50;;;;;;;12.88;11.13;;;10.50;93.80;;;;;;5045145;28;20045;-66
2021/11/16 02:16:17;;;;;;;19.98;12.48;;;10.50;95.40;;;;;;5026867;28;20128;-67
2021/11/16 02:18:44;;;;;;;14.68;12.27;;;10.50;94.60;;;;;;5019213;28;20055;-67
2021/11/16 02:21:11;;;;;;;14.75;11.77;;;10.40;95.00;;;;;;5042557;28;20041;-67
2021/11/16 02:23:39;;;;;;;14.25;11.60;;;10.40;93.50;;;;;;5049030;28;20045;-66
2021/11/16 02:26:09;;;;;;;16.75;12.52;;;10.40;92.90;;;;;;5030464;28;20076;-66
2021/11/16 02:28:36;;;;;;;15.57;12.18;;;10.40;95.00;;;;;;5044894;28;20522;-66
2021/11/16 02:31:04;;;;;;;18.02;12.70;;;10.50;95.10;;;;;;5045781;28;20075;-66
2021/11/16 02:33:32;;;;;;;17.40;13.07;;;10.40;93.40;;;;;;5030476;28;20084;-66
2021/11/16 02:35:59;;;;;;;17.83;11.70;;;10.40;94.80;;;;;;5019220;28;20506;-67
2021/11/16 02:38:26;;;;;;;17.00;12.52;;;10.40;93.80;;;;;;5030094;28;20057;-66
2021/11/16 02:40:53;;;;;;;15.32;12.88;;;10.40;93.00;;;;;;5058469;28;20052;-65
2021/11/16 02:43:21;;;;;;;16.13;12.50;;;10.40;92.30;;;;;;5056666;28;20041;-68
2021/11/16 02:45:48;;;;;;;17.63;12.95;;;10.40;93.40;;;;;;5041097;28;20049;-67
2021/11/16 02:48:15;;;;;;;17.00;12.55;;;10.40;94.80;;;;;;5012345;28;20049;-68
2021/11/16 02:50:46;;;;;;;17.48;12.60;;;10.40;93.30;;;;;;5041617;28;20045;-67
2021/11/16 02:53:14;;;;;;;18.48;13.25;;;10.40;95.30;;;;;;5050130;28;20056;-71
2021/11/16 02:55:41;;;;;;;16.42;13.02;;;10.40;95.50;;;;;;5042501;28;20052;-67
2021/11/16 02:58:08;;;;;;;16.67;13.38;;;10.40;96.20;;;;;;5046685;28;20053;-67
2021/11/16 03:00:35;;;;;;;19.20;13.48;;;10.40;96.10;;;;;;5052318;28;20130;-67
2021/11/16 03:03:02;;;;;;;17.30;12.43;;;10.40;96.40;;;;;;5016235;28;20079;-67
2021/11/16 03:05:34;;;;;;;14.50;11.60;;;10.40;96.80;;;;;;5037463;28;20045;-67
2021/11/16 03:08:10;;;;;;;19.13;11.88;;;10.40;96.60;;;;;;5048431;28;20060;-67
2021/11/16 03:10:37;;;;;;;19.45;12.40;;;10.30;97.10;;;;;;5033649;28;20048;-67
2021/11/16 03:13:04;;;;;;;17.88;12.20;;;10.30;97.50;;;;;;5051448;28;20057;-67
2021/11/16 03:15:31;;;;;;;18.25;11.52;;;10.30;98.40;;;;;;5025205;28;20070;-67
2021/11/16 03:17:59;;;;;;;17.98;12.32;;;10.30;97.50;;;;;;5042968;28;20041;-68
2021/11/16 03:20:27;;;;;;;15.52;11.32;;;10.30;98.80;;;;;;5040361;28;20419;-67
2021/11/16 03:23:08;;;;;;;20.23;12.80;;;10.30;98.20;;;;;;5029600;28;20090;-67
2021/11/16 03:25:39;;;;;;;14.52;11.35;;;10.30;98.00;;;;;;5043789;28;20101;-67
2021/11/16 03:28:09;;;;;;;19.50;12.52;;;10.30;99.10;;;;;;5027183;28;20143;-68
2021/11/16 03:30:36;;;;;;;21.33;12.63;;;10.30;99.10;;;;;;5055494;28;20098;-67
2021/11/16 03:33:04;;;;;;;19.45;13.13;;;10.30;99.20;;;;;;5036061;28;20051;-66
2021/11/16 03:35:32;;;;;;;15.05;11.43;;;10.20;99.40;;;;;;5044728;28;20044;-65
2021/11/16 03:37:59;;;;;;;16.83;11.52;;;10.20;99.40;;;;;;5034488;28;20152;-66
2021/11/16 03:40:27;;;;;;;18.65;12.10;;;10.20;99.70;;;;;;5074524;28;20083;-68
2021/11/16 03:42:54;;;;;;;16.98;12.55;;;10.20;99.50;;;;;;5047714;28;20041;-67
2021/11/16 03:45:23;;;;;;;16.77;10.40;;;10.20;99.80;;;;;;5048229;28;20120;-67
2021/11/16 03:47:50;;;;;;;19.67;12.98;;;10.20;99.90;;;;;;5046579;28;20045;-67
2021/11/16 03:50:19;;;;;;;19.75;11.80;;;10.20;99.90;;;;;;5032792;28;20041;-69
2021/11/16 03:52:52;;;;;;;20.58;12.27;;;10.20;99.90;;;;;;5049868;28;20053;-66
2021/11/16 03:55:23;;;;;;;19.42;12.30;;;10.10;99.90;;;;;;5026535;28;20053;-67
2021/11/16 03:57:54;;;;;;;19.00;13.75;;;10.10;99.90;;;;;;5042899;28;20052;-66
2021/11/16 04:00:24;;;;;;;21.67;14.02;;;10.10;99.90;;;;;;5051614;28;20407;-67
2021/11/16 04:02:52;;;;;;;18.63;12.68;;;10.10;99.90;;;;;;5038182;28;20067;-67
2021/11/16 04:05:19;;;;;;;19.92;12.25;;;10.10;99.90;;;;;;5028368;28;20463;-67
2021/11/16 04:07:46;;;;;;;16.25;12.35;;;10.10;99.90;;;;;;5043097;28;20136;-67
2021/11/16 04:10:13;;;;;;;23.08;13.77;;;10.10;99.90;;;;;;5027742;28;20045;-67
2021/11/16 04:12:43;;;;;;;19.13;13.77;;;10.10;99.90;;;;;;5044296;28;20061;-66
2021/11/16 04:15:11;;;;;;;16.88;11.70;;;10.10;99.90;;;;;;5035046;28;20137;-66
2021/11/16 04:17:41;;;;;;;21.85;14.38;;;10.10;99.90;;;;;;5040886;28;20164;-67
2021/11/16 04:20:16;;;;;;;19.77;13.27;;;10.10;99.90;;;;;;5047247;28;20041;-65
2021/11/16 04:22:43;;;;;;;18.75;12.65;;;10.00;99.90;;;;;;5033070;28;20049;-66
2021/11/16 04:25:10;;;;;;;24.83;14.80;;;10.00;99.90;;;;;;5040834;28;20049;-66
2021/11/16 04:27:37;;;;;;;21.60;13.57;;;10.00;99.90;;;;;;5044061;28;20049;-66
2021/11/16 04:30:05;;;;;;;19.15;13.70;;;10.00;99.90;;;;;;5048427;28;20049;-66
2021/11/16 04:32:32;;;;;;;18.73;12.43;;;10.00;99.90;;;;;;5011715;28;20474;-66
2021/11/16 04:34:59;;;;;;;22.15;14.38;;;10.00;99.90;;;;;;5046461;28;20443;-68
2021/11/16 04:37:26;;;;;;;21.63;13.93;;;9.90;99.90;;;;;;5018207;28;20060;-70
2021/11/16 04:39:53;;;;;;;19.05;12.82;;;9.90;99.90;;;;;;5045979;28;20045;-66
2021/11/16 04:42:22;;;;;;;23.05;13.35;;;9.90;99.90;;;;;;5053953;28;20044;-67
2021/11/16 04:44:49;;;;;;;18.37;12.33;;;9.90;99.90;;;;;;5047650;28;20049;-67
2021/11/16 04:47:23;;;;;;;18.33;12.65;;;9.80;99.90;;;;;;5045157;28;20049;-65
2021/11/16 04:49:57;;;;;;;21.98;14.57;;;9.80;99.90;;;;;;5043266;28;20088;-66
2021/11/16 04:52:34;;;;;;;18.58;12.32;;;9.80;99.90;;;;;;5040492;28;20044;-67
2021/11/16 04:55:23;;;;;;;19.40;12.55;;;9.80;99.90;;;;;;5045031;28;20057;-66
2021/11/16 05:03:26;;;;;;;17.75;12.50;;;9.80;99.90;;;;;;5043968;28;20081;-74
2021/11/16 05:05:54;;;;;;;22.58;13.65;;;9.80;99.90;;;;;;5047561;28;20097;-68
2021/11/16 05:08:20;;;;;;;18.05;12.50;;;9.80;99.90;;;;;;5052742;28;20092;-67
2021/11/16 05:10:47;;;;;;;22.73;13.82;;;9.80;99.90;;;;;;5048193;28;20480;-66
2021/11/16 05:13:14;;;;;;;20.95;13.65;;;9.80;99.90;;;;;;5049352;28;20057;-67
2021/11/16 05:15:43;;;;;;;18.15;12.82;;;9.80;99.90;;;;;;5047719;28;20044;-69
2021/11/16 05:18:10;;;;;;;20.45;13.68;;;9.80;99.90;;;;;;5044465;28;20086;-67
2021/11/16 05:20:37;;;;;;;17.88;12.25;;;9.80;99.90;;;;;;5039282;28;20103;-67
2021/11/16 05:23:04;;;;;;;19.90;12.25;;;9.80;99.90;;;;;;5045096;28;20057;-70
2021/11/16 05:25:32;;;;;;;16.77;12.25;;;9.70;99.90;;;;;;5036761;28;20412;-66
2021/11/16 05:27:59;;;;;;;22.50;12.73;;;9.70;99.90;;;;;;5050702;28;20056;-67
2021/11/16 05:30:28;;;;;;;21.40;13.10;;;9.70;99.90;;;;;;5056257;28;20044;-67
2021/11/16 05:32:56;;;;;;;;;;;9.70;99.90;;;;;;5028160;28;20061;-67
2021/11/16 05:35:23;;;;;;;19.05;11.45;;;9.80;99.90;;;;;;5075367;28;20419;-67
2021/11/16 05:37:50;;;;;;;17.58;12.60;;;9.80;99.90;;;;;;5051776;28;20060;-69
2021/11/16 05:40:17;;;;;;;17.52;12.50;;;9.80;99.90;;;;;;5038107;28;20057;-68
2021/11/16 05:42:43;;;;;;;17.73;11.02;;;9.70;99.90;;;;;;5055439;28;20056;-66
2021/11/16 05:45:11;;;;;;;17.70;12.25;;;9.70;99.90;;;;;;5047829;28;20041;-66
2021/11/16 05:47:39;;;;;;;22.17;14.13;;;9.80;99.90;;;;;;5044360;28;20049;-68
2021/11/16 05:50:06;;;;;;;19.85;12.98;;;9.80;99.90;;;;;;5035832;28;20045;-66
2021/11/16 05:52:33;;;;;;;18.67;12.00;;;9.70;99.90;;;;;;5052113;28;20105;-66
2021/11/16 05:55:00;;;;;;;18.63;13.07;;;9.70;99.90;;;;;;5044671;28;20037;-66
2021/11/16 05:57:27;;;;;;;16.10;11.38;;;9.70;99.90;;;;;;5050082;28;20463;-67
2021/11/16 05:59:54;;;;;;;17.77;12.13;;;9.70;99.90;;;;;;5049978;28;20053;-67
2021/11/16 06:02:21;;;;;;;21.30;12.60;;;9.70;99.90;;;;;;5046553;28;20045;-66
2021/11/16 06:04:48;;;;;;;19.05;12.88;;;9.70;99.90;;;;;;5047675;28;20041;-66
2021/11/16 06:07:15;;;;;;;17.42;11.98;;;9.70;99.90;;;;;;5037535;28;20042;-67
2021/11/16 06:09:45;;;;;;;20.73;12.93;;;9.60;99.90;;;;;;5049434;28;20049;-67
2021/11/16 06:12:12;;;;;;;16.95;11.80;;;9.60;99.90;;;;;;5054065;28;20377;-66
2021/11/16 06:14:39;;;;;;;16.70;12.68;;;9.60;99.90;;;;;;5050137;28;20416;-67
2021/11/16 06:17:06;;;;;;;14.65;10.55;;;9.60;99.90;;;;;;5042398;28;20038;-67
2021/11/16 06:19:35;;;;;;;17.17;12.65;;;9.50;99.90;;;;;;5049447;28;20075;-66
2021/11/16 06:22:07;;;;;;;16.92;11.57;;;9.50;99.90;;;;;;5043652;28;20076;-66
2021/11/16 06:24:34;;;;;;;20.10;12.13;;;9.30;99.90;;;;;;5051303;28;20051;-66
2021/11/16 06:27:01;;;;;;;16.65;12.32;;;9.30;99.90;;;;;;5030684;28;20049;-66
2021/11/16 06:29:28;;;;;;;15.27;11.77;;;9.20;99.90;;;;;;5049086;28;20120;-68
2021/11/16 06:31:55;;;;;;;16.88;11.10;;;9.10;99.90;;;;;;5053518;28;20067;-66
2021/11/16 06:34:22;;;;;;;15.25;11.73;;;9.00;99.90;;;;;;5048743;28;20049;-66
2021/11/16 06:36:49;;;;;;;15.68;10.48;;;8.90;99.90;;;;;;5048036;28;20081;-66
2021/11/16 06:39:19;;;;;;;16.85;12.88;;;8.80;99.90;;;;;;5035874;28;20052;-66
2021/11/16 06:41:46;;;;;;;;;;;8.70;99.90;;;;;;5033774;28;20071;-70
2021/11/16 06:44:15;;;;;;;16.05;10.80;;;8.60;99.90;;;;;;5048715;28;19928;-66
2021/11/16 06:46:43;;;;;;;19.90;13.50;;;8.50;99.90;;;;;;5048965;28;20045;-66
2021/11/16 06:49:13;;;;;;;15.32;11.20;;;8.40;99.90;;;;;;5048162;28;20049;-64
2021/11/16 06:51:41;;;;;;;35.33;25.17;;;8.30;99.90;;;;;;5053492;28;20057;-69
2021/11/16 06:54:10;;;;;;;341.88;251.05;;;8.30;99.90;;;;;;5034119;28;20060;-68
2021/11/16 06:56:37;;;;;;;111.68;79.75;;;8.20;99.90;;;;;;5047805;28;20061;-68
2021/11/16 06:59:04;;;;;;;38.67;26.40;;;8.20;99.90;;;;;;5041410;28;20052;-65
2021/11/16 07:01:34;;;;;;;23.95;17.80;;;8.10;99.90;;;;;;5053198;28;20045;-64
2021/11/16 07:04:05;;;;;;;26.42;18.05;;;8.00;99.90;;;;;;5046272;28;20064;-66
2021/11/16 07:06:32;;;;;;;19.95;14.30;;;8.00;99.90;;;;;;5044867;28;20484;-64
2021/11/16 07:09:00;;;;;;;20.75;15.55;;;8.00;99.90;;;;;;5034504;28;20053;-63
2021/11/16 07:11:27;;;;;;;24.83;14.55;;;7.90;99.90;;;;;;5041254;28;20052;-65
2021/11/16 07:14:00;;;;;;;125.72;84.80;;;7.90;99.90;;;;;;5069525;28;20804;-64
2021/11/16 07:16:52;;;;;;;41.55;28.60;;;7.80;99.90;;;;;;5049434;28;20485;-67
2021/11/16 07:19:38;;;;;;;25.90;17.98;;;7.70;99.90;;;;;;5039644;28;20059;-64
2021/11/16 07:22:07;;;;;;;26.70;16.35;;;7.70;99.90;;;;;;5039482;28;20053;-65
2021/11/16 07:24:44;;;;;;;23.63;13.38;;;7.60;99.90;;;;;;5046974;28;20495;-63
2021/11/16 07:27:11;;;;;;;24.08;15.98;;;7.50;99.90;;;;;;5046012;28;20476;-64
2021/11/16 07:29:46;;;;;;;19.58;13.85;;;7.50;99.90;;;;;;5045907;28;20045;-63
2021/11/16 07:32:21;;;;;;;22.27;15.23;;;7.40;99.90;;;;;;5047877;28;20044;-65
2021/11/16 07:34:51;;;;;;;22.88;16.55;;;7.40;99.90;;;;;;5029050;28;20496;-65
2021/11/16 07:37:20;;;;;;;28.17;15.70;;;7.40;99.90;;;;;;5041513;28;20059;-66
2021/11/16 07:39:52;;;;;;;25.67;16.40;;;7.30;99.90;;;;;;5073723;28;20088;-65
2021/11/16 07:42:21;;;;;;;24.52;16.70;;;7.30;99.90;;;;;;5052910;28;20067;-64
2021/11/16 07:45:06;;;;;;;26.70;17.63;;;7.30;99.90;;;;;;5050099;28;20476;-65
2021/11/16 07:47:38;;;;;;;27.20;16.95;;;7.30;99.90;;;;;;5045825;28;20053;-65
2021/11/16 07:50:05;;;;;;;23.58;17.58;;;7.20;99.90;;;;;;5048288;28;20140;-66
2021/11/16 07:52:32;;;;;;;25.13;17.25;;;7.20;99.90;;;;;;5049142;28;20060;-66
2021/11/16 07:54:59;;;;;;;24.42;16.90;;;7.20;99.90;;;;;;5032574;28;20060;-66
2021/11/16 07:57:29;;;;;;;25.15;17.70;;;7.20;99.90;;;;;;5053846;28;20051;-64
2021/11/16 07:59:56;;;;;;;24.83;18.42;;;7.20;99.90;;;;;;5065383;28;20158;-65
2021/11/16 08:02:32;;;;;;;27.27;18.55;;;7.10;99.90;;;;;;5049033;28;20105;-71
2021/11/16 08:05:38;;;;;;;25.17;17.30;;;7.10;99.90;;;;;;5069316;28;20514;-65
2021/11/16 08:10:49;;;;;;;26.35;18.35;;;7.10;99.90;;;;;;5029342;28;20489;-66
2021/11/16 08:13:26;;;;;;;32.30;19.85;;;7.20;99.90;;;;;;5037864;28;21677;-65
2021/11/16 08:15:53;;;;;;;56.42;39.40;;;7.20;99.90;;;;;;5060364;28;20133;-64
2021/11/16 08:18:20;;;;;;;47.45;33.38;;;7.20;99.90;;;;;;5048225;28;20099;-65
2021/11/16 08:20:47;;;;;;;42.40;30.65;;;7.20;99.90;;;;;;5049927;28;20472;-66
2021/11/16 08:23:14;;;;;;;34.05;23.10;;;7.20;99.90;;;;;;5048581;28;20511;-64
2021/11/16 08:25:41;;;;;;;29.83;21.98;;;7.20;99.90;;;;;;5050253;28;20049;-65
2021/11/16 08:28:09;;;;;;;32.58;19.88;;;7.30;99.90;;;;;;5031536;28;20053;-66
2021/11/16 08:30:37;;;;;;;28.30;18.90;;;7.30;99.90;;;;;;5055139;28;20456;-65
2021/11/16 08:33:04;;;;;;;28.58;20.02;;;7.20;99.90;;;;;;5049458;28;20125;-65
2021/11/16 08:35:32;;;;;;;22.27;17.80;;;7.20;99.90;;;;;;5032141;28;20052;-64
2021/11/16 08:38:05;;;;;;;33.03;21.25;;;7.20;99.90;;;;;;5028879;28;20042;-63
2021/11/16 08:40:36;;;;;;;55.97;35.60;;;7.30;99.90;;;;;;5041938;28;20488;-64
2021/11/16 08:43:12;;;;;;;39.10;26.75;;;7.30;99.90;;;;;;5048520;28;20044;-67
2021/11/16 08:45:44;;;;;;;35.70;22.73;;;7.30;99.90;;;;;;5032754;28;20500;-64
2021/11/16 08:48:16;;;;;;;29.95;19.42;;;7.30;99.90;;;;;;5049633;28;20416;-64
2021/11/16 08:50:53;;;;;;;29.77;20.23;;;7.40;99.90;;;;;;5048649;28;20074;-64
2021/11/16 08:53:39;;;;;;;28.75;18.92;;;7.40;99.90;;;;;;5048240;28;20056;-62
2021/11/16 08:56:12;;;;;;;26.52;19.10;;;7.40;99.90;;;;;;5048594;28;20048;-63
2021/11/16 08:58:59;;;;;;;27.98;19.20;;;7.40;99.90;;;;;;5054667;28;20460;-62
2021/11/16 09:01:26;;;;;;;28.83;20.40;;;7.40;99.90;;;;;;5063660;28;20049;-61
2021/11/16 09:03:53;;;;;;;33.50;22.10;;;7.50;99.90;;;;;;5051327;28;20041;-62
2021/11/16 09:06:22;;;;;;;25.33;18.70;;;7.50;99.90;;;;;;5053118;28;20045;-72
2021/11/16 09:08:59;;;;;;;;;;;7.50;99.90;;;;;;5035900;28;20053;-72
2021/11/16 09:11:26;;;;;;;26.15;15.90;;;7.50;99.90;;;;;;5050825;28;19994;-69
2021/11/16 09:13:53;;;;;;;22.77;15.82;;;7.60;99.90;;;;;;5052658;28;20049;-69
2021/11/16 09:16:22;;;;;;;23.80;15.18;;;7.50;99.90;;;;;;5051164;28;20045;-70
2021/11/16 09:18:52;;;;;;;25.10;16.55;;;7.60;99.90;;;;;;5031988;28;20053;-71
2021/11/16 09:21:26;;;;;;;24.90;15.90;;;7.60;99.90;;;;;;5030819;28;20176;-69
2021/11/16 09:23:53;;;;;;;22.17;15.23;;;7.60;99.90;;;;;;5016709;28;20072;-69
2021/11/16 09:28:57;;;;;;;22.20;16.33;;;7.70;99.90;;;;;;5052438;28;20132;-69
2021/11/16 09:31:28;;;;;;;23.15;17.23;;;7.70;99.90;;;;;;5051485;28;20089;-69
2021/11/16 09:34:00;;;;;;;26.67;16.00;;;7.70;99.90;;;;;;5055953;28;20100;-68
2021/11/16 09:36:29;;;;;;;22.15;17.08;;;7.80;99.90;;;;;;5043830;28;20539;-69
2021/11/16 09:38:58;;;;;;;21.88;15.35;;;7.80;99.90;;;;;;5036987;28;20177;-68
2021/11/16 09:41:28;;;;;;;25.33;17.48;;;7.90;99.90;;;;;;5049068;28;20156;-71
2021/11/16 09:44:08;;;;;;;25.15;16.48;;;8.00;99.90;;;;;;5053190;28;20483;-68
2021/11/16 09:46:51;;;;;;;22.38;16.02;;;8.00;99.90;;;;;;5053579;28;20080;-69
2021/11/16 09:49:33;;;;;;;23.45;17.35;;;8.10;99.90;;;;;;5048406;28;20056;-68
2021/11/16 09:52:14;;;;;;;24.13;16.92;;;8.10;99.90;;;;;;5036373;28;20068;-68
2021/11/16 09:55:08;;;;;;;24.42;17.00;;;8.20;99.90;;;;;;5051223;28;20075;-68
2021/11/16 09:57:46;;;;;;;29.42;19.52;;;8.20;99.90;;;;;;5052677;28;20134;-70
2021/11/16 10:00:18;;;;;;;23.55;18.05;;;8.30;99.90;;;;;;5039605;28;20088;-69
2021/11/16 10:02:47;;;;;;;26.25;17.38;;;8.30;99.90;;;;;;5071450;28;20132;-69
2021/11/16 10:05:19;;;;;;;23.67;16.88;;;8.30;99.90;;;;;;5070928;28;20484;-69
2021/11/16 10:07:47;;;;;;;22.02;16.23;;;8.30;99.90;;;;;;5072018;28;20373;-69
2021/11/16 10:10:14;;;;;;;25.23;17.15;;;8.40;99.90;;;;;;5070756;28;20087;-69
2021/11/16 10:12:46;;;;;;;21.65;16.42;;;8.40;99.90;;;;;;5070969;28;20048;-69
2021/11/16 10:15:14;;;;;;;22.15;16.30;;;8.50;99.90;;;;;;5070746;28;20485;-69
2021/11/16 10:17:42;;;;;;;30.98;18.90;;;8.50;99.90;;;;;;5067985;28;20052;-70
2021/11/16 10:20:11;;;;;;;32.15;18.65;;;8.60;99.90;;;;;;5034709;28;20053;-67
2021/11/16 10:22:39;;;;;;;22.25;15.88;;;8.70;99.90;;;;;;5050766;28;20064;-68
2021/11/16 10:25:20;;;;;;;20.17;15.05;;;8.70;99.90;;;;;;5050511;28;20093;-68
2021/11/16 10:27:48;;;;;;;25.98;17.05;;;8.70;99.90;;;;;;5034222;28;20084;-69
2021/11/16 10:30:26;;;;;;;20.67;15.25;;;8.80;99.90;;;;;;5072194;28;20048;-69
2021/11/16 10:33:10;;;;;;;24.60;17.05;;;8.90;99.90;;;;;;5055292;28;20056;-69
2021/11/16 10:35:57;;;;;;;21.42;14.88;;;8.90;99.90;;;;;;5070284;28;20532;-69
2021/11/16 10:38:29;;;;;;;21.83;14.43;;;9.00;98.60;;;;;;5070464;28;20404;-69
2021/11/16 10:40:57;;;;;;;18.73;12.80;;;9.00;99.10;;;;;;5071490;28;20052;-69
2021/11/16 10:43:47;;;;;;;18.77;13.00;;;9.00;97.40;;;;;;5070574;28;20408;-68
2021/11/16 10:46:14;;;;;;;18.73;13.27;;;9.00;97.00;;;;;;5046238;28;20132;-69
2021/11/16 10:48:41;;;;;;;18.38;14.30;;;9.10;98.10;;;;;;5050069;28;20053;-70
2021/11/16 10:51:09;;;;;;;24.02;15.73;;;9.10;97.80;;;;;;5050249;28;20110;-69
2021/11/16 10:53:36;;;;;;;24.05;14.25;;;9.20;98.20;;;;;;5049940;28;20073;-66
2021/11/16 10:56:05;;;;;;;21.67;15.43;;;9.20;97.60;;;;;;5066153;28;20060;-69
2021/11/16 10:58:37;;;;;;;18.42;12.98;;;9.20;96.70;;;;;;5050512;28;20401;-69
2021/11/16 11:01:09;;;;;;;22.98;15.00;;;9.30;96.40;;;;;;5061304;28;20048;-69
2021/11/16 11:03:45;;;;;;;20.73;14.65;;;9.30;96.40;;;;;;5053748;28;20098;-69
2021/11/16 11:06:15;;;;;;;23.83;16.65;;;9.30;96.40;;;;;;5069904;28;20128;-69
2021/11/16 11:08:55;;;;;;;24.67;15.57;;;9.30;96.20;;;;;;5069913;28;20147;-70
2021/11/16 11:11:33;;;;;;;19.23;14.77;;;9.30;96.10;;;;;;5053241;28;20052;-70
2021/11/16 11:14:00;;;;;;;18.83;14.02;;;9.40;95.90;;;;;;5070107;28;20099;-72
2021/11/16 11:16:28;;;;;;;18.80;14.65;;;9.40;96.20;;;;;;5069813;28;20053;-69
2021/11/16 11:18:55;;;;;;;19.25;13.55;;;9.50;94.70;;;;;;5057453;28;20045;-65
2021/11/16 11:21:49;;;;;;;21.17;15.15;;;9.60;95.30;;;;;;5065010;28;20507;-69
2021/11/16 11:24:22;;;;;;;16.52;12.73;;;9.60;94.70;;;;;;5049520;28;20057;-68
2021/11/16 11:27:01;;;;;;;19.02;13.50;;;9.60;95.30;;;;;;5050764;28;20053;-69
2021/11/16 11:32:27;;;;;;;18.90;13.85;;;9.90;94.10;;;;;;5058821;28;20078;-68
2021/11/16 11:34:59;;;;;;;21.13;13.75;;;10.00;94.80;;;;;;5048050;28;20426;-68
2021/11/16 11:37:26;;;;;;;19.85;14.20;;;10.10;92.80;;;;;;5037213;28;20049;-69
2021/11/16 11:40:02;;;;;;;18.25;12.77;;;10.30;94.40;;;;;;5030535;28;20045;-68
2021/11/16 11:42:32;;;;;;;18.65;13.18;;;10.40;93.70;;;;;;5029463;28;20497;-68
2021/11/16 11:45:11;;;;;;;20.40;14.50;;;10.40;94.10;;;;;;5062196;28;20061;-68
2021/11/16 11:47:40;;;;;;;21.58;14.13;;;10.50;93.50;;;;;;5079858;28;20092;-69
2021/11/16 11:50:24;;;;;;;19.90;13.43;;;10.60;93.20;;;;;;5046926;28;20049;-69
2021/11/16 11:52:51;;;;;;;18.88;14.02;;;10.60;92.30;;;;;;5049108;28;20049;-69
2021/11/16 11:55:18;;;;;;;19.65;14.05;;;10.80;91.80;;;;;;5049675;28;20116;-70
2021/11/16 11:57:45;;;;;;;19.25;14.65;;;10.80;92.30;;;;;;5065636;28;20049;-68
2021/11/16 12:00:13;;;;;;;17.95;13.40;;;10.90;92.10;;;;;;5052692;28;20056;-68
2021/11/16 12:02:41;;;;;;;20.35;15.02;;;10.90;93.40;;;;;;5032703;28;20233;-67
2021/11/16 12:05:08;;;;;;;18.70;14.40;;;10.90;92.30;;;;;;5020518;28;20052;-66
2021/11/16 12:07:40;;;;;;;255.83;196.37;;;10.90;91.90;;;;;;5031395;28;20045;-66
2021/11/16 12:10:10;;;;;;;56.63;40.53;;;10.90;90.40;;;;;;5049484;28;20041;-66
2021/11/16 12:12:38;;;;;;;23.05;17.88;;;11.00;92.10;;;;;;5053255;28;20514;-66
2021/11/16 12:15:09;;;;;;;15.80;12.05;;;11.00;93.30;;;;;;5013396;28;20050;-65
2021/11/16 12:17:46;;;;;;;17.90;11.73;;;11.00;91.60;;;;;;5046495;28;20049;-67
2021/11/16 12:20:39;;;;;;;15.80;12.68;;;11.00;91.90;;;;;;5054186;28;20109;-68
2021/11/16 12:23:11;;;;;;;16.60;12.43;;;10.90;91.80;;;;;;5048241;28;20069;-70
2021/11/16 12:25:39;;;;;;;17.23;12.75;;;10.80;92.00;;;;;;5048637;28;20424;-70
2021/11/16 12:28:27;;;;;;;18.02;12.73;;;10.80;91.10;;;;;;5045819;28;20045;-68
2021/11/16 12:30:55;;;;;;;16.17;11.50;;;10.70;91.50;;;;;;5041241;28;20052;-69
2021/11/16 12:33:42;;;;;;;14.15;10.90;;;10.70;92.40;;;;;;5051000;28;20290;-69
2021/11/16 12:36:18;;;;;;;13.65;11.07;;;10.60;91.80;;;;;;5052202;28;20115;-74
2021/11/16 12:38:47;;;;;;;14.10;10.00;;;10.70;92.10;;;;;;5051886;28;20053;-66
2021/11/16 12:41:32;;;;;;;11.37;8.63;;;10.70;92.30;;;;;;5038939;28;20526;-65
2021/11/16 12:44:04;;;;;;;10.20;7.88;;;10.80;91.90;;;;;;5064835;28;20045;-64
2021/11/16 12:46:34;;;;;;;9.30;6.90;;;10.90;92.10;;;;;;5037793;28;20085;-65
2021/11/16 12:49:03;;;;;;;10.07;7.90;;;11.00;90.60;;;;;;5057919;28;20416;-66
2021/11/16 12:51:37;;;;;;;8.77;6.97;;;11.10;90.70;;;;;;5035830;28;20053;-65
2021/11/16 12:54:27;;;;;;;12.38;7.32;;;11.10;90.30;;;;;;5036749;28;20057;-64
2021/11/16 12:56:57;;;;;;;8.98;6.93;;;11.20;88.80;;;;;;5031778;28;20064;-63
2021/11/16 12:59:34;;;;;;;9.95;7.85;;;11.20;90.40;;;;;;5051738;28;20041;-64
2021/11/16 13:02:02;;;;;;;11.55;7.10;;;11.20;90.10;;;;;;5071669;28;20048;-65
2021/11/16 13:04:48;;;;;;;24.05;18.73;;;11.20;90.80;;;;;;5069654;28;20143;-64